Huntsville, Texas
Current Conditions -  °F | °C
As of 11:53 PM on Sunday 23 Nov 2014 (Local Time) from KUTS Reporting Station
Clear Clear  
Wind Chill: 59°   Ceiling: Unl
Heat Index: 59°   Visibility: 10mi
Dew Point: 43°   Wind: 10mph
Humidity: 55%   Direction: 320°NW
Pressure: 29.78"   Gusts: 20mph
Location:  30.72°N, 95.55°W
Report Text: KUTS 240553Z AUTO 32009G17KT 10SM CLR 15/06 A2978 RMK AO2 SLP082 T01500061 10211 20150 402560150 51052
Loading
Personal Weather Stations






























Interactive Weather Map New forecast layout! Learn more

10-Day Weather Forecast

Advertisements
Track Severe Weather on mobile